Terminal Aerodrome Forecast
Issued by NWS

Home | Current Version | Previous Version | Graphics & Text | Print | Product List | Glossary On
Versions: 1 2 3 4 5 6 7 8 9 10 11 12 13 14 15 16 17 18 19 20 21 22 23 24 25
000
FTUS43 KBIS 230146 AAA
TAFMOT
TAF AMD
KMOT 230146Z 2302/2324 30007KT P6SM SCT150
     FM230400 30006KT P6SM BKN040
     FM230600 31005KT P6SM BKN025
     FM230700 32005KT 6SM BR BKN015
     FM231200 VRB03KT 3SM BR OVC008
     FM231600 06005KT 5SM BR OVC008
     FM232200 04007KT P6SM BKN025=

USA.gov is the U.S. government's official web portal to all federal, state and local government web resources and services.